Time;durP1;ratioP1;P1;durP2;ratioP2;P2;SDS_P1;SDS_P2;PMS_P1;PMS_P2;Temp;Humidity;BMP_temperature;BMP_pressure;BME280_temperature;BME280_humidity;BME280_pressure;Samples;Min_cycle;Max_cycle;Signal;HPM_P1;HPM_P2
2022/10/23 00:01:53;;;;;;;;;;;15.00;99.90;;;;;;5061583;28;20328;-76
2022/10/23 00:04:20;;;;;;;;;;;15.00;99.90;;;;;;5060967;28;20003;-76
2022/10/23 00:06:46;;;;;;;;;;;15.10;99.90;;;;;;5046345;28;19921;-76
2022/10/23 00:09:12;;;;;;;;;;;15.10;99.90;;;;;;5050322;28;19917;-76
2022/10/23 00:11:38;;;;;;;;;;;15.10;99.90;;;;;;5031605;28;20007;-77
2022/10/23 00:14:05;;;;;;;;;;;15.10;99.90;;;;;;5056626;28;20178;-75
2022/10/23 00:16:31;;;;;;;;;;;15.10;99.90;;;;;;5059803;28;19928;-75
2022/10/23 00:18:56;;;;;;;;;;;15.10;99.90;;;;;;5044399;28;20582;-75
2022/10/23 00:21:22;;;;;;;;;;;15.10;99.90;;;;;;5044744;28;20024;-76
2022/10/23 00:23:47;;;;;;;;;;;15.10;99.90;;;;;;5023040;28;19944;-76
2022/10/23 00:26:14;;;;;;;;;;;15.10;99.90;;;;;;5039282;28;19921;-76
2022/10/23 00:28:43;;;;;;;;;;;15.10;99.90;;;;;;5027829;28;19928;-76
2022/10/23 00:31:09;;;;;;;;;;;15.10;99.90;;;;;;5020996;28;20000;-76
2022/10/23 00:33:35;;;;;;;;;;;15.10;99.90;;;;;;5032725;28;20104;-76
2022/10/23 00:36:02;;;;;;;;;;;15.10;99.90;;;;;;5038599;28;19932;-76
2022/10/23 00:38:28;;;;;;;;;;;15.10;99.90;;;;;;5028860;28;20025;-76
2022/10/23 00:40:53;;;;;;;;;;;15.10;99.90;;;;;;5020276;28;20028;-75
2022/10/23 00:43:20;;;;;;;;;;;15.10;99.90;;;;;;5024805;28;20445;-76
2022/10/23 00:45:46;;;;;;;;;;;15.10;99.90;;;;;;5039092;28;19960;-75
2022/10/23 00:48:11;;;;;;;;;;;15.20;99.90;;;;;;5038959;28;19960;-76
2022/10/23 00:50:37;;;;;;;;;;;15.10;99.90;;;;;;5039443;28;19923;-76
2022/10/23 00:53:03;;;;;;;;;;;15.10;99.90;;;;;;5027475;28;19924;-76
2022/10/23 00:55:29;;;;;;;;;;;15.10;99.90;;;;;;5023813;28;20281;-76
2022/10/23 00:57:55;;;;;;;;;;;15.20;99.90;;;;;;5029026;28;19936;-75
2022/10/23 01:00:22;;;;;;;;;;;15.20;99.90;;;;;;5037997;28;19916;-76
2022/10/23 01:02:48;;;;;;;;;;;15.20;99.90;;;;;;5041534;28;20392;-75
2022/10/23 01:05:14;;;;;;;;;;;15.20;99.90;;;;;;5030730;28;20387;-76
2022/10/23 01:07:54;;;;;;;;;;;15.20;99.90;;;;;;5024754;28;19928;-76
2022/10/23 01:10:23;;;;;;;;;;;15.20;99.90;;;;;;5033416;28;19927;-76
2022/10/23 01:12:49;;;;;;;;;;;15.20;99.90;;;;;;5041165;28;19923;-75
2022/10/23 01:15:18;;;;;;;;;;;15.20;99.90;;;;;;5027913;28;20073;-76
2022/10/23 01:17:47;;;;;;;;;;;15.20;99.90;;;;;;5031729;28;20225;-76
2022/10/23 01:20:27;;;;;;;;;;;15.20;99.90;;;;;;5029363;28;19914;-76
2022/10/23 01:22:58;;;;;;;;;;;15.20;99.90;;;;;;5036180;28;19924;-76
2022/10/23 01:25:41;;;;;;;;;;;15.20;99.90;;;;;;5022239;28;19916;-75
2022/10/23 01:28:09;;;;;;;;;;;15.20;99.90;;;;;;5057545;28;20003;-75
2022/10/23 01:30:36;;;;;;;;;;;15.20;99.90;;;;;;5041232;28;19913;-75
2022/10/23 01:33:05;;;;;;;;;;;15.20;99.90;;;;;;5004852;28;19917;-75
2022/10/23 01:35:36;;;;;;;;;;;15.20;99.90;;;;;;5021052;28;20005;-76
2022/10/23 01:38:20;;;;;;;;;;;15.20;99.90;;;;;;5041662;28;19967;-76
2022/10/23 01:41:01;;;;;;;;;;;15.20;99.90;;;;;;5028195;28;19917;-76
2022/10/23 01:43:31;;;;;;;;;;;15.10;99.90;;;;;;5022861;28;20208;-76
2022/10/23 01:46:01;;;;;;;;;;;15.10;99.90;;;;;;5048532;28;19920;-75
2022/10/23 01:48:28;;;;;;;;;;;15.10;99.90;;;;;;5051802;28;19927;-75
2022/10/23 01:50:56;;;;;;;;;;;15.10;99.90;;;;;;5029208;28;19928;-76
2022/10/23 01:53:21;;;;;;;;;;;15.00;99.90;;;;;;5060516;28;19917;-76
2022/10/23 01:55:48;;;;;;;;;;;15.00;99.90;;;;;;5052637;28;20282;-76
2022/10/23 01:58:14;;;;;;;;;;;15.00;99.90;;;;;;5055554;28;19929;-76
2022/10/23 02:00:41;;;;;;;;;;;15.00;99.90;;;;;;5059510;28;20418;-76
2022/10/23 02:03:07;;;;;;;;;;;15.00;99.90;;;;;;5063040;28;19916;-75
2022/10/23 02:05:33;;;;;;;;;;;15.00;99.90;;;;;;5052706;28;19927;-76
2022/10/23 02:07:59;;;;;;;;;;;15.00;99.90;;;;;;5052496;28;20049;-76
2022/10/23 02:10:29;;;;;;;;;;;15.00;99.90;;;;;;5054968;28;20009;-75
2022/10/23 02:13:01;;;;;;;;;;;14.90;99.90;;;;;;5046810;28;19924;-75
2022/10/23 02:15:32;;;;;;;;;;;14.90;99.90;;;;;;5039257;28;20465;-76
2022/10/23 02:18:04;;;;;;;;;;;14.90;99.90;;;;;;5043180;28;19932;-75
2022/10/23 02:20:32;;;;;;;;;;;14.90;99.90;;;;;;5055171;28;19942;-75
2022/10/23 02:23:01;;;;;;;;;;;14.90;99.90;;;;;;5042668;28;19925;-76
2022/10/23 02:25:32;;;;;;;;;;;14.90;99.90;;;;;;5030875;28;19946;-76
2022/10/23 02:27:59;;;;;;;;;;;14.90;99.90;;;;;;5062825;28;19920;-76
2022/10/23 02:30:26;;;;;;;;;;;14.90;99.90;;;;;;5035175;28;19917;-76
2022/10/23 02:32:53;;;;;;;;;;;14.90;99.90;;;;;;5056653;28;19916;-75
2022/10/23 02:35:19;;;;;;;;;;;14.90;99.90;;;;;;5052329;28;20267;-75
2022/10/23 02:37:52;;;;;;;;;;;14.90;99.90;;;;;;5032899;28;19924;-76
2022/10/23 02:40:17;;;;;;;;;;;14.90;99.90;;;;;;5034554;28;19923;-75
2022/10/23 02:43:07;;;;;;;;;;;14.90;99.90;;;;;;5050993;28;20330;-75
2022/10/23 02:45:39;;;;;;;;;;;14.90;99.90;;;;;;5022983;28;20410;-75
2022/10/23 02:48:22;;;;;;;;;;;15.00;99.90;;;;;;5023939;28;19921;-75
2022/10/23 02:51:04;;;;;;;;;;;15.00;99.90;;;;;;5040930;28;19920;-75
2022/10/23 02:53:43;;;;;;;;;;;14.90;99.90;;;;;;5064004;28;19922;-75
2022/10/23 02:56:17;;;;;;;;;;;14.90;99.90;;;;;;5043057;28;20023;-75
2022/10/23 02:59:01;;;;;;;;;;;14.90;99.90;;;;;;5047665;28;19920;-75
2022/10/23 03:01:37;;;;;;;;;;;14.90;99.90;;;;;;5045448;28;19933;-76
2022/10/23 03:04:04;;;;;;;;;;;15.00;99.90;;;;;;5040967;28;19970;-76
2022/10/23 03:06:31;;;;;;;;;;;15.00;99.90;;;;;;5055547;28;20008;-76
2022/10/23 03:08:58;;;;;;;;;;;15.00;99.90;;;;;;5061063;28;19927;-76
2022/10/23 03:11:23;;;;;;;;;;;15.10;99.90;;;;;;5063929;28;19912;-75
2022/10/23 03:13:49;;;;;;;;;;;15.10;99.90;;;;;;5050748;28;20292;-76
2022/10/23 03:16:14;;;;;;;;;;;15.20;99.90;;;;;;5045158;28;19916;-77
2022/10/23 03:18:40;;;;;;;;;;;15.20;99.90;;;;;;5059178;28;19920;-77
2022/10/23 03:21:06;;;;;;;;;;;15.30;99.90;;;;;;5049109;28;19921;-76
2022/10/23 03:23:31;;;;;;;;;;;15.30;99.90;;;;;;5043360;28;20259;-76
2022/10/23 03:25:57;;;;;;;;;;;15.30;99.90;;;;;;5039920;28;19916;-76
2022/10/23 03:28:22;;;;;;;;;;;15.30;99.90;;;;;;5033751;28;19921;-76
2022/10/23 03:30:48;;;;;;;;;;;15.30;99.90;;;;;;5049542;28;19912;-75
2022/10/23 03:33:13;;;;;;;;;;;15.30;99.90;;;;;;5042871;28;19917;-76
2022/10/23 03:35:39;;;;;;;;;;;15.30;99.90;;;;;;5042725;28;19920;-76
2022/10/23 03:38:04;;;;;;;;;;;15.30;99.90;;;;;;5047603;28;20170;-75
2022/10/23 03:40:30;;;;;;;;;;;15.30;99.90;;;;;;5060946;28;19923;-75
2022/10/23 03:42:55;;;;;;;;;;;15.30;99.90;;;;;;5052360;28;20402;-76
2022/10/23 03:45:21;;;;;;;;;;;15.40;99.90;;;;;;5042104;28;20395;-76
2022/10/23 03:47:47;;;;;;;;;;;15.40;99.90;;;;;;5041871;28;20382;-75
2022/10/23 03:50:13;;;;;;;;;;;15.40;99.90;;;;;;5039650;28;19913;-76
2022/10/23 03:52:38;;;;;;;;;;;15.50;99.90;;;;;;5050273;28;19923;-75
2022/10/23 03:55:05;;;;;;;;;;;15.50;99.90;;;;;;5051465;28;19921;-75
2022/10/23 03:57:30;;;;;;;;;;;15.50;99.90;;;;;;5042164;28;19945;-76
2022/10/23 03:59:56;;;;;;;;;;;15.50;99.90;;;;;;5054578;28;20320;-77
2022/10/23 04:02:21;;;;;;;;;;;15.50;99.90;;;;;;5028415;28;19917;-75
2022/10/23 04:04:47;;;;;;;;;;;15.50;99.90;;;;;;5033588;28;19991;-75
2022/10/23 04:07:12;;;;;;;;;;;15.60;99.90;;;;;;5041172;28;19975;-77
2022/10/23 04:09:38;;;;;;;;;;;15.60;99.90;;;;;;5034973;28;19916;-77
2022/10/23 04:12:03;;;;;;;;;;;15.60;99.90;;;;;;5050397;28;20397;-76
2022/10/23 04:14:29;;;;;;;;;;;15.70;99.90;;;;;;5045373;28;20008;-78
2022/10/23 04:16:54;;;;;;;;;;;15.70;99.90;;;;;;5029358;28;19920;-76
2022/10/23 04:19:20;;;;;;;;;;;15.70;99.90;;;;;;5053047;28;19950;-77
2022/10/23 04:21:46;;;;;;;;;;;15.70;99.90;;;;;;5048427;28;19932;-77
2022/10/23 04:24:11;;;;;;;;;;;15.70;99.90;;;;;;5042778;28;19925;-78
2022/10/23 04:26:36;;;;;;;;;;;15.80;99.90;;;;;;5041904;28;19916;-76
2022/10/23 04:29:02;;;;;;;;;;;15.80;99.90;;;;;;5041825;28;20303;-78
2022/10/23 04:31:28;;;;;;;;;;;15.80;99.90;;;;;;5032836;28;19927;-77
2022/10/23 04:33:53;;;;;;;;;;;15.80;99.90;;;;;;5057290;28;19939;-77
2022/10/23 04:36:18;;;;;;;;;;;15.80;99.90;;;;;;5041260;28;20035;-77
2022/10/23 04:38:44;;;;;;;;;;;15.80;99.90;;;;;;5033657;28;20100;-76
2022/10/23 04:41:10;;;;;;;;;;;15.80;99.90;;;;;;5041825;28;19924;-76
2022/10/23 04:43:35;;;;;;;;;;;15.80;99.90;;;;;;5035524;28;19923;-78
2022/10/23 04:46:01;;;;;;;;;;;15.80;99.90;;;;;;5054804;28;19955;-78
2022/10/23 04:48:26;;;;;;;;;;;15.80;99.90;;;;;;5051193;28;19916;-76
2022/10/23 04:50:59;;;;;;;;;;;15.80;99.90;;;;;;5036002;28;19917;-77
2022/10/23 04:53:26;;;;;;;;;;;15.80;99.90;;;;;;5035555;28;19921;-77
2022/10/23 04:55:52;;;;;;;;;;;15.80;99.90;;;;;;5041270;28;20119;-78
2022/10/23 04:58:18;;;;;;;;;;;15.80;99.90;;;;;;5039141;28;19925;-76
2022/10/23 05:00:45;;;;;;;;;;;15.80;99.90;;;;;;5030773;28;19917;-76
2022/10/23 05:03:10;;;;;;;;;;;15.80;99.90;;;;;;5034837;28;19909;-76
2022/10/23 05:05:36;;;;;;;;;;;15.80;99.90;;;;;;5023435;28;20263;-77
2022/10/23 05:08:01;;;;;;;;;;;15.80;99.90;;;;;;5044246;28;20296;-76
2022/10/23 05:10:27;;;;;;;;;;;15.90;99.90;;;;;;5037448;28;20017;-75
2022/10/23 05:12:52;;;;;;;;;;;15.90;99.90;;;;;;5032884;28;20233;-76
2022/10/23 05:15:18;;;;;;;;;;;15.90;99.90;;;;;;5046288;28;19917;-78
2022/10/23 05:17:44;;;;;;;;;;;16.00;99.90;;;;;;5045183;28;20060;-77
2022/10/23 05:20:13;;;;;;;;;;;16.00;99.90;;;;;;5039336;28;19917;-78
2022/10/23 05:22:40;;;;;;;;;;;16.00;99.90;;;;;;5044985;28;20410;-77
2022/10/23 05:25:06;;;;;;;;;;;16.10;99.90;;;;;;5044327;28;19917;-77
2022/10/23 05:27:31;;;;;;;;;;;16.10;99.90;;;;;;5045112;28;20287;-77
2022/10/23 05:29:57;;;;;;;;;;;16.10;99.90;;;;;;5057204;28;19931;-77
2022/10/23 05:32:23;;;;;;;;;;;16.10;99.90;;;;;;5054445;28;19917;-78
2022/10/23 05:34:49;;;;;;;;;;;16.10;99.90;;;;;;5050831;28;20387;-77
2022/10/23 05:37:15;;;;;;;;;;;16.10;99.90;;;;;;5061762;28;20167;-78
2022/10/23 05:39:40;;;;;;;;;;;16.00;99.90;;;;;;5036229;28;19917;-76
2022/10/23 05:42:06;;;;;;;;;;;16.10;99.90;;;;;;5061451;28;20678;-77
2022/10/23 05:44:31;;;;;;;;;;;16.10;99.90;;;;;;5060993;28;19973;-78
2022/10/23 05:46:57;;;;;;;;;;;16.10;99.90;;;;;;5049168;28;19920;-78
2022/10/23 05:49:23;;;;;;;;;;;16.10;99.90;;;;;;5042518;28;19923;-78
2022/10/23 05:51:48;;;;;;;;;;;16.20;99.90;;;;;;5042106;28;20354;-77
2022/10/23 05:54:14;;;;;;;;;;;16.20;99.90;;;;;;5042573;28;19925;-77
2022/10/23 05:56:42;;;;;;;;;;;16.20;99.90;;;;;;5041215;28;19921;-77
2022/10/23 05:59:09;;;;;;;;;;;16.20;99.90;;;;;;5043454;28;19946;-79
2022/10/23 06:01:34;;;;;;;;;;;16.20;99.90;;;;;;5041924;28;19921;-75
2022/10/23 06:04:00;;;;;;;;;;;16.10;99.90;;;;;;5040885;28;20061;-75
2022/10/23 06:06:26;;;;;;;;;;;15.90;99.90;;;;;;5042999;28;19921;-76
2022/10/23 06:08:51;;;;;;;;;;;15.80;99.90;;;;;;5043004;28;20007;-76
2022/10/23 06:11:17;;;;;;;;;;;15.60;99.90;;;;;;5043073;28;19943;-76
2022/10/23 06:13:43;;;;;;;;;;;15.50;99.90;;;;;;5042757;28;19947;-75
2022/10/23 06:16:13;;;;;;;;;;;15.50;99.90;;;;;;5041807;28;20529;-75
2022/10/23 06:18:38;;;;;;;;;;;15.40;99.90;;;;;;5042861;28;20399;-76
2022/10/23 06:21:04;;;;;;;;;;;15.40;99.90;;;;;;5041150;28;19921;-76
2022/10/23 06:23:31;;;;;;;;;;;15.30;99.90;;;;;;5014064;28;19972;-76
2022/10/23 06:25:56;;;;;;;;;;;15.30;99.90;;;;;;5015203;28;19939;-75
2022/10/23 06:28:22;;;;;;;;;;;15.30;99.90;;;;;;5017742;28;20418;-75
2022/10/23 06:30:47;;;;;;;;;;;15.30;99.90;;;;;;5016429;28;19921;-77
2022/10/23 06:33:13;;;;;;;;;;;15.30;99.90;;;;;;5016774;28;19979;-75
2022/10/23 06:35:38;;;;;;;;;;;15.30;99.90;;;;;;5016622;28;19944;-76
2022/10/23 06:38:04;;;;;;;;;;;15.30;99.90;;;;;;5021319;28;19932;-76
2022/10/23 06:40:29;;;;;;;;;;;15.30;99.90;;;;;;5021042;28;19975;-76
2022/10/23 06:42:55;;;;;;;;;;;15.20;99.90;;;;;;5015283;28;19917;-75
2022/10/23 06:45:21;;;;;;;;;;;15.30;99.90;;;;;;5016789;28;20059;-76
2022/10/23 06:47:50;;;;;;;;;;;15.20;99.90;;;;;;5016555;28;20155;-77
2022/10/23 06:50:16;;;;;;;;;;;15.20;99.90;;;;;;5017494;28;19996;-76
2022/10/23 06:52:41;;;;;;;;;;;15.20;99.90;;;;;;5019570;28;20442;-75
2022/10/23 06:55:07;;;;;;;;;;;15.30;99.90;;;;;;5048649;28;20398;-76
2022/10/23 06:57:33;;;;;;;;;;;15.30;99.90;;;;;;5020724;28;19932;-77
2022/10/23 06:59:58;;;;;;;;;;;15.20;99.90;;;;;;5023154;28;19917;-77
2022/10/23 07:02:24;;;;;;;;;;;15.20;99.90;;;;;;5021230;28;19928;-77
2022/10/23 07:04:49;;;;;;;;;;;15.20;99.90;;;;;;5022005;28;20293;-77
2022/10/23 07:07:15;;;;;;;;;;;15.20;99.90;;;;;;5023315;28;19921;-77
2022/10/23 07:09:40;;;;;;;;;;;15.20;99.90;;;;;;5021988;28;19960;-77
2022/10/23 07:12:06;;;;;;;;;;;15.30;99.90;;;;;;5025768;28;19917;-77
2022/10/23 07:14:31;;;;;;;;;;;15.30;99.90;;;;;;5024958;28;19956;-76
2022/10/23 07:16:57;;;;;;;;;;;15.30;99.90;;;;;;5025555;28;20015;-77
2022/10/23 07:19:22;;;;;;;;;;;15.30;99.90;;;;;;5020553;28;19921;-77
2022/10/23 07:21:49;;;;;;;;;;;15.30;99.90;;;;;;5019478;28;19943;-76
2022/10/23 07:24:14;;;;;;;;;;;15.30;99.90;;;;;;5023405;28;20308;-77
2022/10/23 07:26:40;;;;;;;;;;;15.30;99.90;;;;;;5022299;28;19916;-77
2022/10/23 07:29:06;;;;;;;;;;;15.40;99.90;;;;;;5024687;28;20026;-77
2022/10/23 07:31:32;;;;;;;;;;;15.40;99.90;;;;;;5016881;28;19956;-77
2022/10/23 07:33:57;;;;;;;;;;;15.40;99.90;;;;;;5022931;28;19998;-78
2022/10/23 07:36:23;;;;;;;;;;;15.50;99.90;;;;;;5015307;28;19924;-76
2022/10/23 07:38:49;;;;;;;;;;;15.50;99.90;;;;;;5014974;28;19920;-77
2022/10/23 07:41:15;;;;;;;;;;;15.50;99.90;;;;;;5019392;28;19963;-77
2022/10/23 07:43:40;;;;;;;;;;;15.50;99.90;;;;;;5013625;28;20015;-78
2022/10/23 07:46:08;;;;;;;;;;;15.50;99.90;;;;;;5016323;28;19917;-79
2022/10/23 07:48:34;;;;;;;;;;;15.50;99.90;;;;;;5022983;28;19923;-76
2022/10/23 07:51:00;;;;;;;;;;;15.50;99.90;;;;;;5031619;28;19917;-77
2022/10/23 07:53:26;;;;;;;;;;;15.50;99.90;;;;;;5010092;28;20404;-78
2022/10/23 07:55:59;;;;;;;;;;;15.50;99.90;;;;;;5018719;28;20019;-77
2022/10/23 07:58:25;;;;;;;;;;;15.50;99.90;;;;;;5017321;28;20310;-76
2022/10/23 08:00:57;;;;;;;;;;;15.50;99.90;;;;;;5021414;28;19917;-77
2022/10/23 08:03:26;;;;;;;;;;;15.50;99.90;;;;;;5021091;28;19962;-77
2022/10/23 08:05:52;;;;;;;;;;;15.50;99.90;;;;;;5020455;28;19917;-77
2022/10/23 08:08:18;;;;;;;;;;;15.60;99.90;;;;;;5025071;28;19948;-77
2022/10/23 08:10:45;;;;;;;;;;;15.60;99.90;;;;;;5019626;28;20321;-77
2022/10/23 08:13:11;;;;;;;;;;;15.60;99.90;;;;;;5031704;28;20391;-76
2022/10/23 08:15:36;;;;;;;;;;;15.70;99.90;;;;;;5013619;28;20401;-78
2022/10/23 08:18:01;;;;;;;;;;;15.70;99.90;;;;;;5029115;28;19948;-78
2022/10/23 08:20:27;;;;;;;;;;;15.70;99.90;;;;;;5026890;28;20146;-78
2022/10/23 08:22:52;;;;;;;;;;;15.80;99.90;;;;;;5037688;28;19929;-75
2022/10/23 08:25:18;;;;;;;;;;;15.80;99.90;;;;;;5031182;28;20296;-74
2022/10/23 08:27:43;;;;;;;;;;;15.70;99.90;;;;;;5040052;28;19967;-74
2022/10/23 08:30:09;;;;;;;;;;;15.80;99.90;;;;;;5041709;28;19971;-72
2022/10/23 08:32:35;;;;;;;;;;;15.80;99.90;;;;;;5047521;28;19921;-73
2022/10/23 08:35:00;;;;;;;;;;;15.70;99.90;;;;;;5037479;28;19963;-74
2022/10/23 08:37:26;;;;;;;;;;;15.80;99.90;;;;;;5043557;28;20338;-74
2022/10/23 08:39:51;;;;;;;;;;;15.70;99.90;;;;;;5047942;28;19921;-73
2022/10/23 08:42:24;;;;;;;;;;;15.70;99.90;;;;;;5044118;28;19948;-74
2022/10/23 08:44:56;;;;;;;;;;;15.70;99.90;;;;;;5048551;28;19917;-74
2022/10/23 08:47:26;;;;;;;;;;;15.70;99.90;;;;;;5049603;28;20024;-75
2022/10/23 08:50:01;;;;;;;;;;;15.70;99.90;;;;;;5047289;28;19951;-74
2022/10/23 08:52:36;;;;;;;;;;;15.70;99.90;;;;;;5047353;28;19916;-75
2022/10/23 08:55:01;;;;;;;;;;;15.60;99.90;;;;;;5031941;28;20290;-74
2022/10/23 08:57:33;;;;;;;;;;;15.60;99.90;;;;;;5050083;28;19925;-75
2022/10/23 09:00:12;;;;;;;;;;;15.60;99.90;;;;;;5042209;28;19959;-74
2022/10/23 09:02:43;;;;;;;;;;;15.60;99.90;;;;;;5048970;28;20388;-76
2022/10/23 09:05:20;;;;;;;;;;;15.70;99.90;;;;;;5054567;28;19917;-75
2022/10/23 09:07:53;;;;;;;;;;;15.70;99.90;;;;;;5047861;28;20381;-76
2022/10/23 09:10:19;;;;;;;;;;;15.70;99.90;;;;;;5044934;28;19916;-76
2022/10/23 09:12:44;;;;;;;;;;;15.70;99.90;;;;;;5038986;28;19928;-77
2022/10/23 09:15:21;;;;;;;;;;;15.70;99.90;;;;;;5046921;28;19994;-77
2022/10/23 09:17:48;;;;;;;;;;;15.70;99.90;;;;;;5045617;28;19924;-77
2022/10/23 09:20:13;;;;;;;;;;;15.80;99.90;;;;;;5053042;28;19921;-77
2022/10/23 09:22:39;;;;;;;;;;;15.80;99.90;;;;;;5038015;28;19925;-76
2022/10/23 09:25:09;;;;;;;;;;;15.80;99.90;;;;;;5033700;28;20454;-76
2022/10/23 09:27:35;;;;;;;;;;;15.90;99.90;;;;;;5021092;28;20023;-77
2022/10/23 09:30:00;;;;;;;;;;;16.00;99.90;;;;;;4679264;28;10000084;-76
2022/10/23 09:32:36;;;;;;;;;;;16.50;99.90;;;;;;5027092;28;19917;-75
2022/10/23 09:35:02;;;;;;;;;;;17.50;99.90;;;;;;5009849;28;20291;-75
2022/10/23 09:37:29;;;;;;;;;;;18.40;99.90;;;;;;5023930;28;19972;-75
2022/10/23 09:40:01;;;;;;;;;;;18.40;99.90;;;;;;5018406;28;19923;-75
2022/10/23 09:42:27;;;;;;;;;;;18.00;99.90;;;;;;5012775;28;20283;-76
2022/10/23 09:44:53;;;;;;;;;;;17.60;99.90;;;;;;5018955;28;19917;-76
2022/10/23 09:47:20;;;;;;;;;;;17.30;99.90;;;;;;5018155;28;19932;-76
2022/10/23 09:49:47;;;;;;;;;;;17.20;99.90;;;;;;5015232;28;20004;-75
2022/10/23 09:52:12;;;;;;;;;;;17.00;99.90;;;;;;5016677;28;19963;-75
2022/10/23 09:54:43;;;;;;;;;;;16.90;99.90;;;;;;5022936;28;19925;-74
2022/10/23 09:57:20;;;;;;;;;;;16.90;99.90;;;;;;5010850;28;20368;-74
2022/10/23 09:59:50;;;;;;;;;;;16.80;99.90;;;;;;5016464;28;19921;-75
2022/10/23 10:02:29;;;;;;;;;;;16.70;99.90;;;;;;5018264;28;19959;-75
2022/10/23 10:04:54;;;;;;;;;;;16.70;99.90;;;;;;5027423;28;19916;-75
2022/10/23 10:07:22;;;;;;;;;;;16.60;99.90;;;;;;5027166;28;19928;-75
2022/10/23 10:09:48;;;;;;;;;;;16.60;99.90;;;;;;5020562;28;20392;-76
2022/10/23 10:12:18;;;;;;;;;;;16.60;99.90;;;;;;5021449;28;19920;-76
2022/10/23 10:14:57;;;;;;;;;;;16.60;99.90;;;;;;5021488;28;19940;-76
2022/10/23 10:17:34;;;;;;;;;;;16.60;99.90;;;;;;5024270;28;19921;-79
2022/10/23 10:20:18;;;;;;;;;;;16.60;99.90;;;;;;5024775;28;20265;-76
2022/10/23 10:22:43;;;;;;;;;;;16.80;99.90;;;;;;5036312;28;19968;-76
2022/10/23 10:25:18;;;;;;;;;;;17.00;99.90;;;;;;5044445;28;20138;-76
2022/10/23 10:28:01;;;;;;;;;;;17.20;99.90;;;;;;5056532;28;20423;-75
2022/10/23 10:30:33;;;;;;;;;;;17.60;99.90;;;;;;5039642;28;19962;-76
2022/10/23 10:33:05;;;;;;;;;;;19.10;99.90;;;;;;5036341;28;19921;-76
2022/10/23 10:35:31;;;;;;;;;;;20.20;99.90;;;;;;5024507;28;19917;-77
2022/10/23 10:37:56;;;;;;;;;;;20.50;99.90;;;;;;5044787;28;19924;-77
2022/10/23 10:40:37;;;;;;;;;;;20.50;99.90;;;;;;5050827;28;20295;-78
2022/10/23 10:43:14;;;;;;;;;;;20.00;99.90;;;;;;5042048;28;19920;-77
2022/10/23 10:45:43;;;;;;;;;;;19.70;99.90;;;;;;5054213;28;19923;-78
2022/10/23 10:48:11;;;;;;;;;;;19.50;99.90;;;;;;5048561;28;20443;-77
2022/10/23 10:50:45;;;;;;;;;;;19.40;99.90;;;;;;5044009;28;19916;-76
2022/10/23 10:53:18;;;;;;;;;;;19.30;99.90;;;;;;5038894;28;20564;-79
2022/10/23 10:55:47;;;;;;;;;;;19.50;99.90;;;;;;5043052;28;20052;-76
2022/10/23 10:58:16;;;;;;;;;;;20.20;99.90;;;;;;5055227;28;19931;-76
2022/10/23 11:00:43;;;;;;;;;;;21.90;99.90;;;;;;5021527;28;19928;-76
2022/10/23 11:03:11;;;;;;;;;;;22.50;99.90;;;;;;5054354;28;19916;-76
2022/10/23 11:05:39;;;;;;;;;;;22.10;99.90;;;;;;5058222;28;19916;-77
2022/10/23 11:08:21;;;;;;;;;;;21.10;99.90;;;;;;5054484;28;20253;-78
2022/10/23 11:10:52;;;;;;;;;;;20.70;99.90;;;;;;5044790;28;19916;-76
2022/10/23 11:13:23;;;;;;;;;;;20.40;99.90;;;;;;5033014;28;19943;-77
2022/10/23 11:15:50;;;;;;;;;;;20.20;99.90;;;;;;5033252;28;19917;-76
2022/10/23 11:18:20;;;;;;;;;;;20.40;99.90;;;;;;5032384;28;20374;-76
2022/10/23 11:20:49;;;;;;;;;;;20.90;99.90;;;;;;5033447;28;19916;-76
2022/10/23 11:23:25;;;;;;;;;;;21.40;99.90;;;;;;5030673;28;20083;-76
2022/10/23 11:25:56;;;;;;;;;;;21.90;99.90;;;;;;5032386;28;20351;-77
2022/10/23 11:28:38;;;;;;;;;;;22.10;99.90;;;;;;5037029;28;20371;-78
2022/10/23 11:31:11;;;;;;;;;;;21.90;99.90;;;;;;5034709;28;19967;-75
2022/10/23 11:33:56;;;;;;;;;;;21.70;99.90;;;;;;5041418;28;19917;-75
2022/10/23 11:36:40;;;;;;;;;;;21.70;99.90;;;;;;5055263;28;19916;-76
2022/10/23 11:39:17;;;;;;;;;;;21.50;99.90;;;;;;5035567;28;19928;-76
2022/10/23 11:42:09;;;;;;;;;;;21.60;99.90;;;;;;5055560;28;19916;-76
2022/10/23 11:44:41;;;;;;;;;;;21.70;99.90;;;;;;5038468;28;19960;-75
2022/10/23 11:47:25;;;;;;;;;;;21.70;99.90;;;;;;5042694;28;19920;-75
2022/10/23 11:50:06;;;;;;;;;;;21.40;99.90;;;;;;5016945;28;19935;-76
2022/10/23 11:52:33;;;;;;;;;;;21.40;99.90;;;;;;5041810;28;19935;-76
2022/10/23 11:55:03;;;;;;;;;;;21.60;99.90;;;;;;5053103;28;19916;-75
2022/10/23 11:57:28;;;;;;;;;;;21.70;99.90;;;;;;5024085;28;19980;-75
2022/10/23 11:59:55;;;;;;;;;;;21.50;99.90;;;;;;5034590;28;19999;-75
2022/10/23 12:02:38;;;;;;;;;;;21.30;99.90;;;;;;5051097;28;19917;-75
2022/10/23 12:05:08;;;;;;;;;;;20.80;99.90;;;;;;5048282;28;19917;-75
2022/10/23 12:07:38;;;;;;;;;;;20.40;99.90;;;;;;5027327;28;19923;-77
2022/10/23 12:10:04;;;;;;;;;;;20.30;99.90;;;;;;5036626;28;19923;-76
2022/10/23 12:12:29;;;;;;;;;;;20.50;99.90;;;;;;5041636;28;19916;-75
2022/10/23 12:15:07;;;;;;;;;;;20.30;99.90;;;;;;5041255;28;19930;-76
2022/10/23 12:17:37;;;;;;;;;;;20.10;99.90;;;;;;5041662;28;19935;-75
2022/10/23 12:20:03;;;;;;;;;;;20.20;99.90;;;;;;5042510;28;19921;-75
2022/10/23 12:22:36;;;;;;;;;;;20.70;99.90;;;;;;5037496;28;19925;-75
2022/10/23 12:25:01;;;;;;;;;;;20.80;99.90;;;;;;5037922;28;19923;-75
2022/10/23 12:27:27;;;;;;;;;;;21.00;99.90;;;;;;5038336;28;19917;-75
2022/10/23 12:30:00;;;;;;;;;;;20.90;99.90;;;;;;4686150;28;9999884;-75
2022/10/23 12:32:25;;;;;;;;;;;20.80;99.90;;;;;;5034485;28;19921;-75
2022/10/23 12:35:03;;;;;;;;;;;21.00;99.90;;;;;;5036578;28;19917;-75
2022/10/23 12:37:49;;;;;;;;;;;21.10;99.90;;;;;;5039149;28;19932;-74
2022/10/23 12:40:15;;;;;;;;;;;21.30;99.90;;;;;;5040056;28;19917;-74
2022/10/23 12:42:48;;;;;;;;;;;21.00;99.90;;;;;;5033519;28;20334;-74
2022/10/23 12:45:18;;;;;;;;;;;20.50;99.90;;;;;;5040924;28;19917;-74
2022/10/23 12:47:45;;;;;;;;;;;20.20;99.90;;;;;;5031695;28;20324;-75
2022/10/23 12:50:17;;;;;;;;;;;19.80;99.90;;;;;;5034161;28;19917;-75
2022/10/23 12:52:51;;;;;;;;;;;19.50;99.90;;;;;;5040993;28;19963;-75
2022/10/23 12:55:17;;;;;;;;;;;19.20;99.90;;;;;;5038388;28;19987;-75
2022/10/23 12:57:43;;;;;;;;;;;19.10;99.90;;;;;;5039348;28;20316;-74
2022/10/23 13:00:09;;;;;;;;;;;19.00;99.90;;;;;;5038883;28;19923;-74
2022/10/23 13:02:34;;;;;;;;;;;19.00;99.90;;;;;;5037090;28;19923;-75
2022/10/23 13:05:01;;;;;;;;;;;19.40;99.90;;;;;;5039318;28;19916;-74
2022/10/23 13:07:32;;;;;;;;;;;19.90;99.90;;;;;;5038817;28;19936;-75
2022/10/23 13:09:58;;;;;;;;;;;20.10;99.90;;;;;;5034253;28;19994;-74
2022/10/23 13:12:26;;;;;;;;;;;20.20;99.90;;;;;;5034991;28;20431;-75
2022/10/23 13:14:58;;;;;;;;;;;20.40;99.90;;;;;;5033172;28;19955;-74
2022/10/23 13:17:52;;;;;;;;;;;20.50;99.90;;;;;;5030660;28;19979;-75
2022/10/23 13:20:21;;;;;;;;;;;20.40;99.90;;;;;;5023314;28;19917;-74
2022/10/23 13:22:53;;;;;;;;;;;20.00;99.90;;;;;;5037237;28;19924;-75
2022/10/23 13:25:19;;;;;;;;;;;19.80;99.90;;;;;;5034233;28;19916;-74
2022/10/23 13:27:45;;;;;;;;;;;19.60;99.90;;;;;;5041296;28;19924;-74
2022/10/23 13:30:27;;;;;;;;;;;19.80;99.90;;;;;;5039991;28;19921;-73
2022/10/23 13:32:52;;;;;;;;;;;20.30;99.90;;;;;;5026792;28;19993;-74
2022/10/23 13:35:21;;;;;;;;;;;20.80;99.90;;;;;;5039775;28;20376;-74
2022/10/23 13:37:47;;;;;;;;;;;21.10;99.90;;;;;;5047230;28;20402;-75
2022/10/23 13:40:24;;;;;;;;;;;20.90;99.90;;;;;;5037726;28;20008;-74
2022/10/23 13:42:51;;;;;;;;;;;20.90;99.90;;;;;;5053053;28;20027;-75
2022/10/23 13:45:21;;;;;;;;;;;20.80;99.90;;;;;;5038262;28;19927;-74
2022/10/23 13:47:46;;;;;;;;;;;20.60;99.90;;;;;;5037168;28;19983;-74
2022/10/23 13:50:12;;;;;;;;;;;20.50;99.90;;;;;;5055098;28;19921;-74
2022/10/23 13:52:37;;;;;;;;;;;20.60;99.90;;;;;;5036543;28;20128;-75
2022/10/23 13:55:10;;;;;;;;;;;20.60;99.90;;;;;;5041274;28;20288;-75
2022/10/23 13:57:36;;;;;;;;;;;20.70;99.90;;;;;;5038815;28;20342;-74
2022/10/23 14:00:01;;;;;;;;;;;20.80;99.90;;;;;;5024865;28;20372;-74
2022/10/23 14:02:27;;;;;;;;;;;21.00;99.90;;;;;;5038009;28;19924;-75
2022/10/23 14:04:52;;;;;;;;;;;21.00;99.90;;;;;;5054546;28;19917;-75
2022/10/23 14:07:18;;;;;;;;;;;21.00;99.90;;;;;;5040312;28;20108;-74
2022/10/23 14:09:43;;;;;;;;;;;20.70;99.90;;;;;;5035822;28;20473;-73
2022/10/23 14:12:10;;;;;;;;;;;20.40;99.90;;;;;;5040320;28;20282;-74
2022/10/23 14:14:36;;;;;;;;;;;20.50;99.90;;;;;;5041171;28;19920;-74
2022/10/23 14:17:01;;;;;;;;;;;20.80;99.90;;;;;;5029718;28;19921;-74
2022/10/23 14:19:27;;;;;;;;;;;21.00;99.90;;;;;;5039148;28;19917;-75
2022/10/23 14:21:52;;;;;;;;;;;21.00;99.90;;;;;;5039751;28;20398;-74
2022/10/23 14:24:18;;;;;;;;;;;20.80;99.90;;;;;;5047606;28;20015;-75